sensor_id;sensor_type;location;lat;lon;timestamp;P1;durP1;ratioP1;P2;durP2;ratioP2
23714;SDS011;12036;50.858;4.472;2023-11-25T00:02:16;10.10;;;1.88;;
23714;SDS011;12036;50.858;4.472;2023-11-25T00:04:42;12.77;;;2.72;;
23714;SDS011;12036;50.858;4.472;2023-11-25T00:07:08;8.38;;;2.50;;
23714;SDS011;12036;50.858;4.472;2023-11-25T00:09:33;5.97;;;1.40;;
23714;SDS011;12036;50.858;4.472;2023-11-25T00:11:59;9.52;;;1.50;;
23714;SDS011;12036;50.858;4.472;2023-11-25T00:14:25;6.28;;;1.38;;
23714;SDS011;12036;50.858;4.472;2023-11-25T00:16:50;9.13;;;1.08;;
23714;SDS011;12036;50.858;4.472;2023-11-25T00:19:19;7.85;;;1.10;;
23714;SDS011;12036;50.858;4.472;2023-11-25T00:21:45;6.15;;;1.00;;
23714;SDS011;12036;50.858;4.472;2023-11-25T00:24:11;5.78;;;1.33;;
23714;SDS011;12036;50.858;4.472;2023-11-25T00:26:36;5.93;;;0.98;;
23714;SDS011;12036;50.858;4.472;2023-11-25T00:29:03;7.47;;;1.17;;
23714;SDS011;12036;50.858;4.472;2023-11-25T00:31:28;7.47;;;1.63;;
23714;SDS011;12036;50.858;4.472;2023-11-25T00:33:54;3.35;;;1.10;;
23714;SDS011;12036;50.858;4.472;2023-11-25T00:36:19;5.22;;;1.05;;
23714;SDS011;12036;50.858;4.472;2023-11-25T00:38:46;10.23;;;1.10;;
23714;SDS011;12036;50.858;4.472;2023-11-25T00:41:12;11.98;;;1.15;;
23714;SDS011;12036;50.858;4.472;2023-11-25T00:43:37;8.85;;;1.02;;
23714;SDS011;12036;50.858;4.472;2023-11-25T00:46:03;5.90;;;1.27;;
23714;SDS011;12036;50.858;4.472;2023-11-25T00:48:29;9.23;;;0.95;;
23714;SDS011;12036;50.858;4.472;2023-11-25T00:50:56;4.00;;;0.90;;
23714;SDS011;12036;50.858;4.472;2023-11-25T00:53:22;13.93;;;1.38;;
23714;SDS011;12036;50.858;4.472;2023-11-25T00:55:50;7.47;;;1.30;;
23714;SDS011;12036;50.858;4.472;2023-11-25T00:58:16;5.20;;;0.95;;
23714;SDS011;12036;50.858;4.472;2023-11-25T01:00:41;8.18;;;1.10;;
23714;SDS011;12036;50.858;4.472;2023-11-25T01:03:07;11.55;;;1.30;;
23714;SDS011;12036;50.858;4.472;2023-11-25T01:05:36;7.13;;;0.95;;
23714;SDS011;12036;50.858;4.472;2023-11-25T01:08:01;8.82;;;1.30;;
23714;SDS011;12036;50.858;4.472;2023-11-25T01:10:27;10.48;;;0.88;;
23714;SDS011;12036;50.858;4.472;2023-11-25T01:12:53;9.63;;;1.30;;
23714;SDS011;12036;50.858;4.472;2023-11-25T01:15:18;9.68;;;1.10;;
23714;SDS011;12036;50.858;4.472;2023-11-25T01:17:45;6.65;;;1.10;;
23714;SDS011;12036;50.858;4.472;2023-11-25T01:20:10;5.47;;;0.93;;
23714;SDS011;12036;50.858;4.472;2023-11-25T01:22:38;3.92;;;1.10;;
23714;SDS011;12036;50.858;4.472;2023-11-25T01:25:05;4.63;;;1.00;;
23714;SDS011;12036;50.858;4.472;2023-11-25T01:27:31;5.95;;;1.33;;
23714;SDS011;12036;50.858;4.472;2023-11-25T01:29:58;9.07;;;1.17;;
23714;SDS011;12036;50.858;4.472;2023-11-25T01:32:24;5.88;;;1.38;;
23714;SDS011;12036;50.858;4.472;2023-11-25T01:34:50;6.47;;;1.40;;
23714;SDS011;12036;50.858;4.472;2023-11-25T01:37:16;5.45;;;1.15;;
23714;SDS011;12036;50.858;4.472;2023-11-25T01:39:42;8.35;;;1.50;;
23714;SDS011;12036;50.858;4.472;2023-11-25T01:42:08;10.73;;;1.40;;
23714;SDS011;12036;50.858;4.472;2023-11-25T01:44:34;3.60;;;1.27;;
23714;SDS011;12036;50.858;4.472;2023-11-25T01:47:00;9.43;;;1.77;;
23714;SDS011;12036;50.858;4.472;2023-11-25T01:49:26;7.10;;;1.58;;
23714;SDS011;12036;50.858;4.472;2023-11-25T01:51:52;7.05;;;1.17;;
23714;SDS011;12036;50.858;4.472;2023-11-25T01:54:18;8.10;;;1.00;;
23714;SDS011;12036;50.858;4.472;2023-11-25T01:56:48;5.20;;;1.05;;
23714;SDS011;12036;50.858;4.472;2023-11-25T01:59:16;8.38;;;1.20;;
23714;SDS011;12036;50.858;4.472;2023-11-25T02:01:44;5.82;;;1.20;;
23714;SDS011;12036;50.858;4.472;2023-11-25T02:04:14;3.55;;;0.80;;
23714;SDS011;12036;50.858;4.472;2023-11-25T02:06:40;9.38;;;1.35;;
23714;SDS011;12036;50.858;4.472;2023-11-25T02:09:05;5.85;;;1.13;;
23714;SDS011;12036;50.858;4.472;2023-11-25T02:11:31;4.68;;;1.00;;
23714;SDS011;12036;50.858;4.472;2023-11-25T02:13:57;12.40;;;1.38;;
23714;SDS011;12036;50.858;4.472;2023-11-25T02:16:23;9.27;;;1.10;;
23714;SDS011;12036;50.858;4.472;2023-11-25T02:18:49;11.93;;;1.40;;
23714;SDS011;12036;50.858;4.472;2023-11-25T02:21:16;6.05;;;1.00;;
23714;SDS011;12036;50.858;4.472;2023-11-25T02:23:42;7.30;;;1.25;;
23714;SDS011;12036;50.858;4.472;2023-11-25T02:26:07;4.57;;;0.90;;
23714;SDS011;12036;50.858;4.472;2023-11-25T02:28:33;7.68;;;1.02;;
23714;SDS011;12036;50.858;4.472;2023-11-25T02:31:00;7.40;;;1.65;;
23714;SDS011;12036;50.858;4.472;2023-11-25T02:33:30;10.00;;;1.40;;
23714;SDS011;12036;50.858;4.472;2023-11-25T02:35:57;8.20;;;1.27;;
23714;SDS011;12036;50.858;4.472;2023-11-25T02:38:23;10.38;;;1.60;;
23714;SDS011;12036;50.858;4.472;2023-11-25T02:40:48;9.10;;;1.40;;
23714;SDS011;12036;50.858;4.472;2023-11-25T02:43:14;8.65;;;1.35;;
23714;SDS011;12036;50.858;4.472;2023-11-25T02:45:41;9.55;;;1.23;;
23714;SDS011;12036;50.858;4.472;2023-11-25T02:48:07;8.10;;;1.45;;
23714;SDS011;12036;50.858;4.472;2023-11-25T02:50:34;13.70;;;1.30;;
23714;SDS011;12036;50.858;4.472;2023-11-25T02:53:00;6.15;;;1.30;;
23714;SDS011;12036;50.858;4.472;2023-11-25T02:55:26;9.95;;;1.30;;
23714;SDS011;12036;50.858;4.472;2023-11-25T02:57:51;13.63;;;1.17;;
23714;SDS011;12036;50.858;4.472;2023-11-25T03:00:17;8.43;;;1.13;;
23714;SDS011;12036;50.858;4.472;2023-11-25T03:02:50;7.70;;;1.30;;
23714;SDS011;12036;50.858;4.472;2023-11-25T03:05:18;8.18;;;1.60;;
23714;SDS011;12036;50.858;4.472;2023-11-25T03:07:47;7.30;;;1.55;;
23714;SDS011;12036;50.858;4.472;2023-11-25T03:10:15;12.10;;;1.40;;
23714;SDS011;12036;50.858;4.472;2023-11-25T03:12:41;11.80;;;1.52;;
23714;SDS011;12036;50.858;4.472;2023-11-25T03:15:09;8.43;;;1.48;;
23714;SDS011;12036;50.858;4.472;2023-11-25T03:17:36;9.02;;;1.30;;
23714;SDS011;12036;50.858;4.472;2023-11-25T03:20:04;12.25;;;1.45;;
23714;SDS011;12036;50.858;4.472;2023-11-25T03:22:31;12.43;;;1.50;;
23714;SDS011;12036;50.858;4.472;2023-11-25T03:24:56;5.53;;;1.30;;
23714;SDS011;12036;50.858;4.472;2023-11-25T03:27:22;10.93;;;1.58;;
23714;SDS011;12036;50.858;4.472;2023-11-25T03:29:47;6.78;;;1.02;;
23714;SDS011;12036;50.858;4.472;2023-11-25T03:32:14;7.03;;;1.30;;
23714;SDS011;12036;50.858;4.472;2023-11-25T03:34:41;14.05;;;1.60;;
23714;SDS011;12036;50.858;4.472;2023-11-25T03:37:07;10.98;;;1.08;;
23714;SDS011;12036;50.858;4.472;2023-11-25T03:39:33;12.63;;;1.58;;
23714;SDS011;12036;50.858;4.472;2023-11-25T03:42:00;13.88;;;1.60;;
23714;SDS011;12036;50.858;4.472;2023-11-25T03:44:26;7.22;;;1.30;;
23714;SDS011;12036;50.858;4.472;2023-11-25T03:46:52;10.68;;;1.45;;
23714;SDS011;12036;50.858;4.472;2023-11-25T03:49:20;10.23;;;1.25;;
23714;SDS011;12036;50.858;4.472;2023-11-25T03:51:46;8.35;;;1.20;;
23714;SDS011;12036;50.858;4.472;2023-11-25T03:54:12;10.98;;;1.85;;
23714;SDS011;12036;50.858;4.472;2023-11-25T03:56:37;8.38;;;1.70;;
23714;SDS011;12036;50.858;4.472;2023-11-25T03:59:03;15.50;;;1.65;;
23714;SDS011;12036;50.858;4.472;2023-11-25T04:01:29;7.70;;;1.65;;
23714;SDS011;12036;50.858;4.472;2023-11-25T04:03:55;11.75;;;2.00;;
23714;SDS011;12036;50.858;4.472;2023-11-25T04:06:20;9.52;;;1.20;;
23714;SDS011;12036;50.858;4.472;2023-11-25T04:08:46;12.30;;;1.52;;
23714;SDS011;12036;50.858;4.472;2023-11-25T04:11:11;10.40;;;1.63;;
23714;SDS011;12036;50.858;4.472;2023-11-25T04:13:37;9.60;;;1.65;;
23714;SDS011;12036;50.858;4.472;2023-11-25T04:16:03;13.38;;;2.03;;
23714;SDS011;12036;50.858;4.472;2023-11-25T04:18:29;13.05;;;1.77;;
23714;SDS011;12036;50.858;4.472;2023-11-25T04:20:55;14.00;;;1.83;;
23714;SDS011;12036;50.858;4.472;2023-11-25T04:23:21;8.88;;;1.67;;
23714;SDS011;12036;50.858;4.472;2023-11-25T04:25:47;12.98;;;1.40;;
23714;SDS011;12036;50.858;4.472;2023-11-25T04:28:13;7.10;;;1.52;;
23714;SDS011;12036;50.858;4.472;2023-11-25T04:30:39;9.52;;;1.52;;
23714;SDS011;12036;50.858;4.472;2023-11-25T04:33:08;14.52;;;2.00;;
23714;SDS011;12036;50.858;4.472;2023-11-25T04:35:35;11.82;;;1.77;;
23714;SDS011;12036;50.858;4.472;2023-11-25T04:38:04;15.30;;;1.75;;
23714;SDS011;12036;50.858;4.472;2023-11-25T04:40:30;15.75;;;1.80;;
23714;SDS011;12036;50.858;4.472;2023-11-25T04:42:56;17.60;;;1.52;;
23714;SDS011;12036;50.858;4.472;2023-11-25T04:45:22;16.17;;;2.58;;
23714;SDS011;12036;50.858;4.472;2023-11-25T04:47:48;15.77;;;2.00;;
23714;SDS011;12036;50.858;4.472;2023-11-25T04:50:18;11.52;;;1.52;;
23714;SDS011;12036;50.858;4.472;2023-11-25T04:52:45;16.65;;;1.70;;
23714;SDS011;12036;50.858;4.472;2023-11-25T04:55:11;11.85;;;1.88;;
23714;SDS011;12036;50.858;4.472;2023-11-25T04:57:38;11.55;;;1.42;;
23714;SDS011;12036;50.858;4.472;2023-11-25T05:00:04;7.63;;;2.00;;
23714;SDS011;12036;50.858;4.472;2023-11-25T05:05:02;11.10;;;1.58;;
23714;SDS011;12036;50.858;4.472;2023-11-25T05:07:29;8.15;;;1.48;;
23714;SDS011;12036;50.858;4.472;2023-11-25T05:09:55;14.63;;;1.85;;
23714;SDS011;12036;50.858;4.472;2023-11-25T05:12:21;16.42;;;1.75;;
23714;SDS011;12036;50.858;4.472;2023-11-25T05:14:48;9.00;;;1.40;;
23714;SDS011;12036;50.858;4.472;2023-11-25T05:17:14;12.48;;;1.40;;
23714;SDS011;12036;50.858;4.472;2023-11-25T05:19:40;11.70;;;1.70;;
23714;SDS011;12036;50.858;4.472;2023-11-25T05:22:06;15.52;;;1.25;;
23714;SDS011;12036;50.858;4.472;2023-11-25T05:24:32;14.02;;;1.77;;
23714;SDS011;12036;50.858;4.472;2023-11-25T05:26:57;10.98;;;1.92;;
23714;SDS011;12036;50.858;4.472;2023-11-25T05:29:23;18.10;;;1.88;;
23714;SDS011;12036;50.858;4.472;2023-11-25T05:31:48;10.45;;;1.50;;
23714;SDS011;12036;50.858;4.472;2023-11-25T05:34:14;11.48;;;1.80;;
23714;SDS011;12036;50.858;4.472;2023-11-25T05:36:40;10.30;;;1.58;;
23714;SDS011;12036;50.858;4.472;2023-11-25T05:39:05;8.95;;;1.60;;
23714;SDS011;12036;50.858;4.472;2023-11-25T05:41:32;13.02;;;1.77;;
23714;SDS011;12036;50.858;4.472;2023-11-25T05:44:01;11.98;;;1.42;;
23714;SDS011;12036;50.858;4.472;2023-11-25T05:46:29;12.25;;;1.90;;
23714;SDS011;12036;50.858;4.472;2023-11-25T05:48:55;14.10;;;1.90;;
23714;SDS011;12036;50.858;4.472;2023-11-25T05:51:21;13.02;;;1.65;;
23714;SDS011;12036;50.858;4.472;2023-11-25T05:53:48;11.68;;;1.80;;
23714;SDS011;12036;50.858;4.472;2023-11-25T05:56:13;10.02;;;1.30;;
23714;SDS011;12036;50.858;4.472;2023-11-25T05:58:39;11.98;;;1.40;;
23714;SDS011;12036;50.858;4.472;2023-11-25T06:01:04;13.35;;;1.60;;
23714;SDS011;12036;50.858;4.472;2023-11-25T06:03:30;16.00;;;1.23;;
23714;SDS011;12036;50.858;4.472;2023-11-25T06:05:56;13.25;;;1.52;;
23714;SDS011;12036;50.858;4.472;2023-11-25T06:08:21;14.20;;;1.45;;
23714;SDS011;12036;50.858;4.472;2023-11-25T06:10:48;11.63;;;1.52;;
23714;SDS011;12036;50.858;4.472;2023-11-25T06:13:17;10.18;;;1.50;;
23714;SDS011;12036;50.858;4.472;2023-11-25T06:15:42;11.23;;;1.60;;
23714;SDS011;12036;50.858;4.472;2023-11-25T06:18:08;12.40;;;1.70;;
23714;SDS011;12036;50.858;4.472;2023-11-25T06:20:34;12.10;;;1.90;;
23714;SDS011;12036;50.858;4.472;2023-11-25T06:23:02;16.00;;;2.33;;
23714;SDS011;12036;50.858;4.472;2023-11-25T06:25:28;14.77;;;1.70;;
23714;SDS011;12036;50.858;4.472;2023-11-25T06:27:54;8.57;;;1.38;;
23714;SDS011;12036;50.858;4.472;2023-11-25T06:30:19;13.75;;;1.73;;
23714;SDS011;12036;50.858;4.472;2023-11-25T06:32:47;11.23;;;1.48;;
23714;SDS011;12036;50.858;4.472;2023-11-25T06:35:12;8.95;;;1.70;;
23714;SDS011;12036;50.858;4.472;2023-11-25T06:37:38;11.52;;;1.90;;
23714;SDS011;12036;50.858;4.472;2023-11-25T06:40:06;11.57;;;2.00;;
23714;SDS011;12036;50.858;4.472;2023-11-25T06:42:32;10.90;;;1.92;;
23714;SDS011;12036;50.858;4.472;2023-11-25T06:44:58;17.45;;;1.77;;
23714;SDS011;12036;50.858;4.472;2023-11-25T06:47:24;10.30;;;1.40;;
23714;SDS011;12036;50.858;4.472;2023-11-25T06:49:49;11.50;;;1.58;;
23714;SDS011;12036;50.858;4.472;2023-11-25T06:52:18;15.48;;;1.92;;
23714;SDS011;12036;50.858;4.472;2023-11-25T06:54:44;9.65;;;1.55;;
23714;SDS011;12036;50.858;4.472;2023-11-25T06:57:09;13.73;;;2.35;;
23714;SDS011;12036;50.858;4.472;2023-11-25T06:59:35;10.75;;;1.60;;
23714;SDS011;12036;50.858;4.472;2023-11-25T07:02:01;18.50;;;1.70;;
23714;SDS011;12036;50.858;4.472;2023-11-25T07:04:28;6.80;;;1.45;;
23714;SDS011;12036;50.858;4.472;2023-11-25T07:06:54;11.05;;;1.52;;
23714;SDS011;12036;50.858;4.472;2023-11-25T07:09:20;16.60;;;1.70;;
23714;SDS011;12036;50.858;4.472;2023-11-25T07:11:46;8.10;;;1.40;;
23714;SDS011;12036;50.858;4.472;2023-11-25T07:14:14;13.95;;;2.28;;
23714;SDS011;12036;50.858;4.472;2023-11-25T07:16:40;9.77;;;2.10;;
23714;SDS011;12036;50.858;4.472;2023-11-25T07:19:06;5.78;;;1.27;;
23714;SDS011;12036;50.858;4.472;2023-11-25T07:21:33;13.80;;;1.75;;
23714;SDS011;12036;50.858;4.472;2023-11-25T07:23:59;10.32;;;1.30;;
23714;SDS011;12036;50.858;4.472;2023-11-25T07:26:24;12.77;;;1.52;;
23714;SDS011;12036;50.858;4.472;2023-11-25T07:28:51;12.27;;;1.60;;
23714;SDS011;12036;50.858;4.472;2023-11-25T07:31:17;9.40;;;1.27;;
23714;SDS011;12036;50.858;4.472;2023-11-25T07:33:46;9.90;;;1.30;;
23714;SDS011;12036;50.858;4.472;2023-11-25T07:36:12;9.63;;;1.83;;
23714;SDS011;12036;50.858;4.472;2023-11-25T07:38:38;3.88;;;1.23;;
23714;SDS011;12036;50.858;4.472;2023-11-25T07:41:03;8.18;;;1.52;;
23714;SDS011;12036;50.858;4.472;2023-11-25T07:43:30;6.97;;;1.02;;
23714;SDS011;12036;50.858;4.472;2023-11-25T07:45:56;5.53;;;1.00;;
23714;SDS011;12036;50.858;4.472;2023-11-25T07:48:22;11.43;;;1.02;;
23714;SDS011;12036;50.858;4.472;2023-11-25T07:50:48;10.73;;;1.00;;
23714;SDS011;12036;50.858;4.472;2023-11-25T07:53:13;5.95;;;1.05;;
23714;SDS011;12036;50.858;4.472;2023-11-25T07:55:39;8.98;;;1.25;;
23714;SDS011;12036;50.858;4.472;2023-11-25T07:58:05;7.82;;;1.15;;
23714;SDS011;12036;50.858;4.472;2023-11-25T08:00:32;9.60;;;1.10;;
23714;SDS011;12036;50.858;4.472;2023-11-25T08:03:00;7.28;;;1.33;;
23714;SDS011;12036;50.858;4.472;2023-11-25T08:05:27;11.05;;;1.80;;
23714;SDS011;12036;50.858;4.472;2023-11-25T08:07:54;5.03;;;1.38;;
23714;SDS011;12036;50.858;4.472;2023-11-25T08:10:20;8.55;;;1.70;;
23714;SDS011;12036;50.858;4.472;2023-11-25T08:12:48;10.23;;;1.40;;
23714;SDS011;12036;50.858;4.472;2023-11-25T08:15:14;7.47;;;1.48;;
23714;SDS011;12036;50.858;4.472;2023-11-25T08:17:41;12.23;;;1.73;;
23714;SDS011;12036;50.858;4.472;2023-11-25T08:20:08;5.57;;;1.67;;
23714;SDS011;12036;50.858;4.472;2023-11-25T08:22:37;12.63;;;2.10;;
23714;SDS011;12036;50.858;4.472;2023-11-25T08:25:04;6.47;;;2.00;;
23714;SDS011;12036;50.858;4.472;2023-11-25T08:27:33;5.90;;;1.60;;
23714;SDS011;12036;50.858;4.472;2023-11-25T08:29:59;7.10;;;1.42;;
23714;SDS011;12036;50.858;4.472;2023-11-25T08:32:25;11.48;;;1.90;;
23714;SDS011;12036;50.858;4.472;2023-11-25T08:34:51;9.73;;;1.65;;
23714;SDS011;12036;50.858;4.472;2023-11-25T08:37:17;4.38;;;1.73;;
23714;SDS011;12036;50.858;4.472;2023-11-25T08:39:49;8.48;;;1.73;;
23714;SDS011;12036;50.858;4.472;2023-11-25T08:42:14;11.60;;;1.90;;
23714;SDS011;12036;50.858;4.472;2023-11-25T08:44:40;7.82;;;1.65;;
23714;SDS011;12036;50.858;4.472;2023-11-25T08:47:10;5.38;;;1.67;;
23714;SDS011;12036;50.858;4.472;2023-11-25T08:49:36;7.50;;;1.77;;
23714;SDS011;12036;50.858;4.472;2023-11-25T08:52:02;4.63;;;1.58;;
23714;SDS011;12036;50.858;4.472;2023-11-25T08:54:27;7.45;;;1.42;;
23714;SDS011;12036;50.858;4.472;2023-11-25T08:57:01;7.80;;;2.30;;
23714;SDS011;12036;50.858;4.472;2023-11-25T08:59:33;13.05;;;1.80;;
23714;SDS011;12036;50.858;4.472;2023-11-25T09:01:59;7.78;;;1.70;;
23714;SDS011;12036;50.858;4.472;2023-11-25T09:04:29;8.32;;;1.60;;
23714;SDS011;12036;50.858;4.472;2023-11-25T09:07:00;9.00;;;1.65;;
23714;SDS011;12036;50.858;4.472;2023-11-25T09:09:26;11.68;;;2.15;;
23714;SDS011;12036;50.858;4.472;2023-11-25T09:11:52;10.75;;;2.20;;
23714;SDS011;12036;50.858;4.472;2023-11-25T09:14:19;7.70;;;2.60;;
23714;SDS011;12036;50.858;4.472;2023-11-25T09:16:45;6.93;;;2.03;;
23714;SDS011;12036;50.858;4.472;2023-11-25T09:19:11;8.93;;;1.63;;
23714;SDS011;12036;50.858;4.472;2023-11-25T09:21:38;9.02;;;1.92;;
23714;SDS011;12036;50.858;4.472;2023-11-25T09:24:04;7.93;;;1.90;;
23714;SDS011;12036;50.858;4.472;2023-11-25T09:26:30;5.47;;;1.50;;
23714;SDS011;12036;50.858;4.472;2023-11-25T09:28:56;7.65;;;2.08;;
23714;SDS011;12036;50.858;4.472;2023-11-25T09:31:21;8.18;;;2.05;;
23714;SDS011;12036;50.858;4.472;2023-11-25T09:33:50;9.70;;;2.00;;
23714;SDS011;12036;50.858;4.472;2023-11-25T09:36:16;12.18;;;2.10;;
23714;SDS011;12036;50.858;4.472;2023-11-25T09:38:42;6.35;;;2.00;;
23714;SDS011;12036;50.858;4.472;2023-11-25T09:41:08;11.65;;;2.10;;
23714;SDS011;12036;50.858;4.472;2023-11-25T09:43:34;5.75;;;1.58;;
23714;SDS011;12036;50.858;4.472;2023-11-25T09:46:01;7.70;;;1.92;;
23714;SDS011;12036;50.858;4.472;2023-11-25T09:48:27;10.20;;;1.40;;
23714;SDS011;12036;50.858;4.472;2023-11-25T09:50:53;6.40;;;1.30;;
23714;SDS011;12036;50.858;4.472;2023-11-25T09:53:21;4.35;;;1.13;;
23714;SDS011;12036;50.858;4.472;2023-11-25T09:56:02;8.43;;;1.63;;
23714;SDS011;12036;50.858;4.472;2023-11-25T09:58:29;9.70;;;1.50;;
23714;SDS011;12036;50.858;4.472;2023-11-25T10:00:58;7.45;;;1.30;;
23714;SDS011;12036;50.858;4.472;2023-11-25T10:03:28;3.85;;;1.50;;
23714;SDS011;12036;50.858;4.472;2023-11-25T10:05:58;8.60;;;1.50;;
23714;SDS011;12036;50.858;4.472;2023-11-25T10:08:23;5.50;;;1.60;;
23714;SDS011;12036;50.858;4.472;2023-11-25T10:15:58;8.48;;;1.77;;
23714;SDS011;12036;50.858;4.472;2023-11-25T10:18:24;7.53;;;1.77;;
23714;SDS011;12036;50.858;4.472;2023-11-25T10:20:50;7.72;;;1.80;;
23714;SDS011;12036;50.858;4.472;2023-11-25T10:23:22;7.68;;;1.58;;
23714;SDS011;12036;50.858;4.472;2023-11-25T10:25:49;6.85;;;1.15;;
23714;SDS011;12036;50.858;4.472;2023-11-25T10:28:19;7.65;;;1.65;;
23714;SDS011;12036;50.858;4.472;2023-11-25T10:30:57;7.78;;;1.73;;
23714;SDS011;12036;50.858;4.472;2023-11-25T10:33:24;7.75;;;1.48;;
23714;SDS011;12036;50.858;4.472;2023-11-25T10:35:53;8.07;;;1.38;;
23714;SDS011;12036;50.858;4.472;2023-11-25T10:38:23;6.85;;;1.02;;
23714;SDS011;12036;50.858;4.472;2023-11-25T10:40:56;7.65;;;1.50;;
23714;SDS011;12036;50.858;4.472;2023-11-25T10:43:25;9.13;;;1.17;;
23714;SDS011;12036;50.858;4.472;2023-11-25T10:48:34;9.70;;;1.70;;
23714;SDS011;12036;50.858;4.472;2023-11-25T10:51:02;10.82;;;1.30;;
23714;SDS011;12036;50.858;4.472;2023-11-25T10:53:28;9.85;;;2.03;;
23714;SDS011;12036;50.858;4.472;2023-11-25T10:55:55;8.70;;;1.90;;
23714;SDS011;12036;50.858;4.472;2023-11-25T10:58:23;10.57;;;1.60;;
23714;SDS011;12036;50.858;4.472;2023-11-25T11:00:51;4.45;;;1.60;;
23714;SDS011;12036;50.858;4.472;2023-11-25T11:03:18;6.78;;;1.90;;
23714;SDS011;12036;50.858;4.472;2023-11-25T11:08:22;13.43;;;1.90;;
23714;SDS011;12036;50.858;4.472;2023-11-25T11:10:54;9.73;;;1.77;;
23714;SDS011;12036;50.858;4.472;2023-11-25T11:13:26;8.77;;;1.90;;
23714;SDS011;12036;50.858;4.472;2023-11-25T11:16:00;10.90;;;2.10;;
23714;SDS011;12036;50.858;4.472;2023-11-25T11:18:32;9.90;;;1.77;;
23714;SDS011;12036;50.858;4.472;2023-11-25T11:21:01;7.43;;;2.00;;
23714;SDS011;12036;50.858;4.472;2023-11-25T11:23:30;9.95;;;1.88;;
23714;SDS011;12036;50.858;4.472;2023-11-25T11:26:06;9.10;;;2.70;;
23714;SDS011;12036;50.858;4.472;2023-11-25T11:28:44;11.20;;;2.22;;
23714;SDS011;12036;50.858;4.472;2023-11-25T11:34:15;10.40;;;2.28;;
23714;SDS011;12036;50.858;4.472;2023-11-25T11:36:42;9.25;;;2.30;;
23714;SDS011;12036;50.858;4.472;2023-11-25T11:39:08;14.23;;;2.45;;
23714;SDS011;12036;50.858;4.472;2023-11-25T11:41:43;11.48;;;1.67;;
23714;SDS011;12036;50.858;4.472;2023-11-25T11:44:09;11.68;;;1.58;;
23714;SDS011;12036;50.858;4.472;2023-11-25T11:46:38;5.80;;;1.48;;
23714;SDS011;12036;50.858;4.472;2023-11-25T11:49:07;8.30;;;1.65;;
23714;SDS011;12036;50.858;4.472;2023-11-25T11:51:33;12.68;;;2.00;;
23714;SDS011;12036;50.858;4.472;2023-11-25T12:02:20;8.80;;;2.58;;
23714;SDS011;12036;50.858;4.472;2023-11-25T12:04:45;6.90;;;2.10;;
23714;SDS011;12036;50.858;4.472;2023-11-25T12:07:11;8.05;;;2.63;;
23714;SDS011;12036;50.858;4.472;2023-11-25T12:09:38;10.40;;;2.00;;
23714;SDS011;12036;50.858;4.472;2023-11-25T12:12:04;12.75;;;2.35;;
23714;SDS011;12036;50.858;4.472;2023-11-25T12:14:30;9.68;;;1.80;;
23714;SDS011;12036;50.858;4.472;2023-11-25T12:16:55;10.10;;;2.10;;
23714;SDS011;12036;50.858;4.472;2023-11-25T12:19:21;7.40;;;1.83;;
23714;SDS011;12036;50.858;4.472;2023-11-25T12:21:48;10.48;;;1.52;;
23714;SDS011;12036;50.858;4.472;2023-11-25T12:24:14;11.90;;;2.05;;
23714;SDS011;12036;50.858;4.472;2023-11-25T12:26:40;10.43;;;2.58;;
23714;SDS011;12036;50.858;4.472;2023-11-25T12:29:08;5.10;;;3.13;;
23714;SDS011;12036;50.858;4.472;2023-11-25T12:31:36;9.30;;;3.30;;
23714;SDS011;12036;50.858;4.472;2023-11-25T12:34:02;7.47;;;3.72;;
23714;SDS011;12036;50.858;4.472;2023-11-25T12:36:29;7.88;;;3.35;;
23714;SDS011;12036;50.858;4.472;2023-11-25T12:38:55;11.93;;;2.53;;
23714;SDS011;12036;50.858;4.472;2023-11-25T12:41:20;10.23;;;3.65;;
23714;SDS011;12036;50.858;4.472;2023-11-25T12:44:05;11.00;;;3.03;;
23714;SDS011;12036;50.858;4.472;2023-11-25T12:46:33;7.53;;;3.38;;
23714;SDS011;12036;50.858;4.472;2023-11-25T12:48:58;15.32;;;5.50;;
23714;SDS011;12036;50.858;4.472;2023-11-25T12:51:24;8.68;;;5.03;;
23714;SDS011;12036;50.858;4.472;2023-11-25T12:53:53;7.63;;;3.42;;
23714;SDS011;12036;50.858;4.472;2023-11-25T12:56:20;13.10;;;3.38;;
23714;SDS011;12036;50.858;4.472;2023-11-25T12:58:47;11.43;;;2.75;;
23714;SDS011;12036;50.858;4.472;2023-11-25T13:01:13;13.35;;;3.15;;
23714;SDS011;12036;50.858;4.472;2023-11-25T13:03:38;8.10;;;2.38;;
23714;SDS011;12036;50.858;4.472;2023-11-25T13:06:05;7.93;;;2.10;;
23714;SDS011;12036;50.858;4.472;2023-11-25T13:08:35;11.05;;;2.70;;
23714;SDS011;12036;50.858;4.472;2023-11-25T13:11:02;7.70;;;2.55;;
23714;SDS011;12036;50.858;4.472;2023-11-25T13:13:30;10.63;;;2.95;;
23714;SDS011;12036;50.858;4.472;2023-11-25T13:15:56;14.20;;;3.30;;
23714;SDS011;12036;50.858;4.472;2023-11-25T13:18:23;13.48;;;2.90;;
23714;SDS011;12036;50.858;4.472;2023-11-25T13:20:50;10.90;;;3.95;;
23714;SDS011;12036;50.858;4.472;2023-11-25T13:23:16;15.60;;;3.40;;
23714;SDS011;12036;50.858;4.472;2023-11-25T13:25:43;10.90;;;2.30;;
23714;SDS011;12036;50.858;4.472;2023-11-25T13:28:09;13.38;;;2.55;;
23714;SDS011;12036;50.858;4.472;2023-11-25T13:30:35;11.93;;;2.05;;
23714;SDS011;12036;50.858;4.472;2023-11-25T13:33:01;9.80;;;2.25;;
23714;SDS011;12036;50.858;4.472;2023-11-25T13:35:27;12.32;;;2.20;;
23714;SDS011;12036;50.858;4.472;2023-11-25T13:37:56;7.68;;;2.17;;
23714;SDS011;12036;50.858;4.472;2023-11-25T13:40:24;10.77;;;3.38;;
23714;SDS011;12036;50.858;4.472;2023-11-25T13:43:02;6.50;;;1.83;;
23714;SDS011;12036;50.858;4.472;2023-11-25T13:45:29;19.17;;;2.30;;
23714;SDS011;12036;50.858;4.472;2023-11-25T13:47:56;11.43;;;2.28;;
23714;SDS011;12036;50.858;4.472;2023-11-25T13:50:23;11.35;;;2.03;;
23714;SDS011;12036;50.858;4.472;2023-11-25T13:52:50;8.38;;;1.70;;
23714;SDS011;12036;50.858;4.472;2023-11-25T13:55:16;8.27;;;2.30;;
23714;SDS011;12036;50.858;4.472;2023-11-25T13:57:43;17.95;;;2.75;;
23714;SDS011;12036;50.858;4.472;2023-11-25T14:00:10;11.88;;;1.90;;
23714;SDS011;12036;50.858;4.472;2023-11-25T14:02:36;11.43;;;2.47;;
23714;SDS011;12036;50.858;4.472;2023-11-25T14:05:02;12.25;;;2.70;;
23714;SDS011;12036;50.858;4.472;2023-11-25T14:07:28;8.05;;;2.15;;
23714;SDS011;12036;50.858;4.472;2023-11-25T14:09:55;4.75;;;2.28;;
23714;SDS011;12036;50.858;4.472;2023-11-25T14:12:20;5.72;;;2.58;;
23714;SDS011;12036;50.858;4.472;2023-11-25T14:14:46;10.77;;;2.45;;
23714;SDS011;12036;50.858;4.472;2023-11-25T14:17:12;18.48;;;2.65;;
23714;SDS011;12036;50.858;4.472;2023-11-25T14:19:42;13.05;;;2.67;;
23714;SDS011;12036;50.858;4.472;2023-11-25T14:22:10;10.30;;;2.83;;
23714;SDS011;12036;50.858;4.472;2023-11-25T14:24:37;10.52;;;2.17;;
23714;SDS011;12036;50.858;4.472;2023-11-25T14:27:02;14.10;;;2.17;;
23714;SDS011;12036;50.858;4.472;2023-11-25T14:29:29;5.72;;;1.92;;
23714;SDS011;12036;50.858;4.472;2023-11-25T14:31:55;7.50;;;1.95;;
23714;SDS011;12036;50.858;4.472;2023-11-25T14:34:20;12.43;;;2.60;;
23714;SDS011;12036;50.858;4.472;2023-11-25T14:36:47;8.32;;;3.13;;
23714;SDS011;12036;50.858;4.472;2023-11-25T14:39:13;13.57;;;2.47;;
23714;SDS011;12036;50.858;4.472;2023-11-25T14:41:43;11.73;;;3.13;;
23714;SDS011;12036;50.858;4.472;2023-11-25T14:44:15;7.18;;;1.60;;
23714;SDS011;12036;50.858;4.472;2023-11-25T14:46:41;9.32;;;2.03;;
23714;SDS011;12036;50.858;4.472;2023-11-25T14:49:07;11.55;;;2.78;;
23714;SDS011;12036;50.858;4.472;2023-11-25T14:51:32;11.10;;;2.70;;
23714;SDS011;12036;50.858;4.472;2023-11-25T14:53:58;8.38;;;2.30;;
23714;SDS011;12036;50.858;4.472;2023-11-25T14:56:24;11.23;;;2.30;;
23714;SDS011;12036;50.858;4.472;2023-11-25T14:58:49;9.02;;;2.30;;
23714;SDS011;12036;50.858;4.472;2023-11-25T15:01:15;14.23;;;2.30;;
23714;SDS011;12036;50.858;4.472;2023-11-25T15:03:44;11.55;;;2.78;;